sensor_id;sensor_type;location;lat;lon;timestamp;P1;durP1;ratioP1;P2;durP2;ratioP2
10657;SDS011;5377;43.276;26.930;2024-01-30T00:00:46;14.47;;;9.80;;
10657;SDS011;5377;43.276;26.930;2024-01-30T00:03:12;12.40;;;10.03;;
10657;SDS011;5377;43.276;26.930;2024-01-30T00:05:39;16.80;;;10.93;;
10657;SDS011;5377;43.276;26.930;2024-01-30T00:08:07;17.77;;;11.20;;
10657;SDS011;5377;43.276;26.930;2024-01-30T00:10:34;13.67;;;10.80;;
10657;SDS011;5377;43.276;26.930;2024-01-30T00:13:01;15.50;;;11.07;;
10657;SDS011;5377;43.276;26.930;2024-01-30T00:15:27;14.27;;;10.90;;
10657;SDS011;5377;43.276;26.930;2024-01-30T00:17:54;14.63;;;10.57;;
10657;SDS011;5377;43.276;26.930;2024-01-30T00:20:21;16.37;;;10.50;;
10657;SDS011;5377;43.276;26.930;2024-01-30T00:22:47;15.70;;;11.07;;
10657;SDS011;5377;43.276;26.930;2024-01-30T00:25:15;14.47;;;10.60;;
10657;SDS011;5377;43.276;26.930;2024-01-30T00:27:42;14.20;;;10.03;;
10657;SDS011;5377;43.276;26.930;2024-01-30T00:30:09;18.43;;;11.23;;
10657;SDS011;5377;43.276;26.930;2024-01-30T00:32:35;17.97;;;10.53;;
10657;SDS011;5377;43.276;26.930;2024-01-30T00:35:02;16.33;;;11.80;;
10657;SDS011;5377;43.276;26.930;2024-01-30T00:37:29;16.17;;;10.87;;
10657;SDS011;5377;43.276;26.930;2024-01-30T00:39:56;20.00;;;11.90;;
10657;SDS011;5377;43.276;26.930;2024-01-30T00:42:24;17.63;;;11.03;;
10657;SDS011;5377;43.276;26.930;2024-01-30T00:44:51;16.33;;;11.20;;
10657;SDS011;5377;43.276;26.930;2024-01-30T00:47:17;14.47;;;10.50;;
10657;SDS011;5377;43.276;26.930;2024-01-30T00:49:44;16.80;;;11.27;;
10657;SDS011;5377;43.276;26.930;2024-01-30T00:52:11;18.20;;;11.97;;
10657;SDS011;5377;43.276;26.930;2024-01-30T00:54:37;17.90;;;12.07;;
10657;SDS011;5377;43.276;26.930;2024-01-30T00:57:04;14.20;;;10.83;;
10657;SDS011;5377;43.276;26.930;2024-01-30T00:59:32;14.40;;;10.63;;
10657;SDS011;5377;43.276;26.930;2024-01-30T01:01:59;17.80;;;11.70;;
10657;SDS011;5377;43.276;26.930;2024-01-30T01:04:25;17.97;;;11.70;;
10657;SDS011;5377;43.276;26.930;2024-01-30T01:06:52;15.00;;;10.67;;
10657;SDS011;5377;43.276;26.930;2024-01-30T01:09:19;18.47;;;12.00;;
10657;SDS011;5377;43.276;26.930;2024-01-30T01:11:45;17.23;;;11.57;;
10657;SDS011;5377;43.276;26.930;2024-01-30T01:14:12;16.33;;;10.83;;
10657;SDS011;5377;43.276;26.930;2024-01-30T01:16:40;16.53;;;11.03;;
10657;SDS011;5377;43.276;26.930;2024-01-30T01:19:07;14.93;;;10.67;;
10657;SDS011;5377;43.276;26.930;2024-01-30T01:21:33;16.03;;;11.10;;
10657;SDS011;5377;43.276;26.930;2024-01-30T01:24:00;15.83;;;10.47;;
10657;SDS011;5377;43.276;26.930;2024-01-30T01:26:26;17.40;;;11.07;;
10657;SDS011;5377;43.276;26.930;2024-01-30T01:28:53;18.90;;;11.17;;
10657;SDS011;5377;43.276;26.930;2024-01-30T01:31:19;16.83;;;10.20;;
10657;SDS011;5377;43.276;26.930;2024-01-30T01:33:51;16.43;;;11.00;;
10657;SDS011;5377;43.276;26.930;2024-01-30T01:36:17;15.17;;;10.90;;
10657;SDS011;5377;43.276;26.930;2024-01-30T01:38:44;17.80;;;10.87;;
10657;SDS011;5377;43.276;26.930;2024-01-30T01:41:10;19.03;;;11.03;;
10657;SDS011;5377;43.276;26.930;2024-01-30T01:43:37;17.93;;;11.77;;
10657;SDS011;5377;43.276;26.930;2024-01-30T01:46:04;14.13;;;9.93;;
10657;SDS011;5377;43.276;26.930;2024-01-30T01:48:31;16.00;;;11.13;;
10657;SDS011;5377;43.276;26.930;2024-01-30T01:50:58;17.73;;;10.80;;
10657;SDS011;5377;43.276;26.930;2024-01-30T01:53:25;17.70;;;11.97;;
10657;SDS011;5377;43.276;26.930;2024-01-30T01:55:52;16.87;;;11.93;;
10657;SDS011;5377;43.276;26.930;2024-01-30T01:58:20;16.30;;;10.77;;
10657;SDS011;5377;43.276;26.930;2024-01-30T02:00:48;16.80;;;11.03;;
10657;SDS011;5377;43.276;26.930;2024-01-30T02:03:16;17.80;;;10.97;;
10657;SDS011;5377;43.276;26.930;2024-01-30T02:05:46;13.10;;;10.43;;
10657;SDS011;5377;43.276;26.930;2024-01-30T02:08:14;19.40;;;10.70;;
10657;SDS011;5377;43.276;26.930;2024-01-30T02:10:41;17.07;;;11.30;;
10657;SDS011;5377;43.276;26.930;2024-01-30T02:13:07;17.13;;;11.60;;
10657;SDS011;5377;43.276;26.930;2024-01-30T02:15:34;15.37;;;10.53;;
10657;SDS011;5377;43.276;26.930;2024-01-30T02:18:00;19.17;;;11.30;;
10657;SDS011;5377;43.276;26.930;2024-01-30T02:20:27;16.03;;;10.83;;
10657;SDS011;5377;43.276;26.930;2024-01-30T02:22:56;16.27;;;10.53;;
10657;SDS011;5377;43.276;26.930;2024-01-30T02:25:38;16.20;;;10.30;;
10657;SDS011;5377;43.276;26.930;2024-01-30T02:28:09;20.30;;;10.90;;
10657;SDS011;5377;43.276;26.930;2024-01-30T02:30:35;13.00;;;9.33;;
10657;SDS011;5377;43.276;26.930;2024-01-30T02:33:02;15.30;;;10.90;;
10657;SDS011;5377;43.276;26.930;2024-01-30T02:35:28;16.73;;;11.43;;
10657;SDS011;5377;43.276;26.930;2024-01-30T02:37:56;15.80;;;11.13;;
10657;SDS011;5377;43.276;26.930;2024-01-30T02:40:23;17.97;;;11.03;;
10657;SDS011;5377;43.276;26.930;2024-01-30T02:42:49;18.33;;;11.13;;
10657;SDS011;5377;43.276;26.930;2024-01-30T02:45:16;16.03;;;10.53;;
10657;SDS011;5377;43.276;26.930;2024-01-30T02:47:42;18.10;;;10.83;;
10657;SDS011;5377;43.276;26.930;2024-01-30T02:50:09;15.13;;;10.93;;
10657;SDS011;5377;43.276;26.930;2024-01-30T02:52:36;16.43;;;12.00;;
10657;SDS011;5377;43.276;26.930;2024-01-30T02:55:04;18.70;;;12.73;;
10657;SDS011;5377;43.276;26.930;2024-01-30T02:57:31;16.37;;;11.70;;
10657;SDS011;5377;43.276;26.930;2024-01-30T02:59:57;14.27;;;11.27;;
10657;SDS011;5377;43.276;26.930;2024-01-30T03:02:24;15.90;;;10.80;;
10657;SDS011;5377;43.276;26.930;2024-01-30T03:04:50;15.10;;;10.83;;
10657;SDS011;5377;43.276;26.930;2024-01-30T03:07:17;15.57;;;10.63;;
10657;SDS011;5377;43.276;26.930;2024-01-30T03:09:43;14.80;;;10.90;;
10657;SDS011;5377;43.276;26.930;2024-01-30T03:12:11;14.17;;;9.53;;
10657;SDS011;5377;43.276;26.930;2024-01-30T03:14:38;15.43;;;11.50;;
10657;SDS011;5377;43.276;26.930;2024-01-30T03:17:04;17.90;;;11.17;;
10657;SDS011;5377;43.276;26.930;2024-01-30T03:19:32;15.80;;;11.17;;
10657;SDS011;5377;43.276;26.930;2024-01-30T03:21:58;16.77;;;10.27;;
10657;SDS011;5377;43.276;26.930;2024-01-30T03:24:25;17.63;;;10.23;;
10657;SDS011;5377;43.276;26.930;2024-01-30T03:26:51;15.87;;;10.67;;
10657;SDS011;5377;43.276;26.930;2024-01-30T03:29:19;16.07;;;10.63;;
10657;SDS011;5377;43.276;26.930;2024-01-30T03:31:46;17.70;;;11.23;;
10657;SDS011;5377;43.276;26.930;2024-01-30T03:34:12;17.40;;;11.33;;
10657;SDS011;5377;43.276;26.930;2024-01-30T03:36:38;16.73;;;11.33;;
10657;SDS011;5377;43.276;26.930;2024-01-30T03:39:05;17.93;;;10.93;;
10657;SDS011;5377;43.276;26.930;2024-01-30T03:41:31;19.60;;;11.63;;
10657;SDS011;5377;43.276;26.930;2024-01-30T03:43:58;16.67;;;10.33;;
10657;SDS011;5377;43.276;26.930;2024-01-30T03:46:26;17.97;;;12.73;;
10657;SDS011;5377;43.276;26.930;2024-01-30T03:48:53;16.67;;;10.00;;
10657;SDS011;5377;43.276;26.930;2024-01-30T03:51:19;13.97;;;10.30;;
10657;SDS011;5377;43.276;26.930;2024-01-30T03:53:46;15.80;;;9.13;;
10657;SDS011;5377;43.276;26.930;2024-01-30T03:56:12;17.47;;;11.63;;
10657;SDS011;5377;43.276;26.930;2024-01-30T03:58:39;17.90;;;10.77;;
10657;SDS011;5377;43.276;26.930;2024-01-30T04:01:05;16.53;;;10.07;;
10657;SDS011;5377;43.276;26.930;2024-01-30T04:03:33;15.33;;;10.30;;
10657;SDS011;5377;43.276;26.930;2024-01-30T04:06:00;15.30;;;10.83;;
10657;SDS011;5377;43.276;26.930;2024-01-30T04:08:26;17.97;;;10.10;;
10657;SDS011;5377;43.276;26.930;2024-01-30T04:10:53;14.90;;;10.93;;
10657;SDS011;5377;43.276;26.930;2024-01-30T04:13:19;14.40;;;10.67;;
10657;SDS011;5377;43.276;26.930;2024-01-30T04:15:46;16.87;;;9.90;;
10657;SDS011;5377;43.276;26.930;2024-01-30T04:18:12;19.23;;;11.93;;
10657;SDS011;5377;43.276;26.930;2024-01-30T04:20:40;14.87;;;10.00;;
10657;SDS011;5377;43.276;26.930;2024-01-30T04:23:07;16.93;;;9.53;;
10657;SDS011;5377;43.276;26.930;2024-01-30T04:25:33;16.30;;;11.33;;
10657;SDS011;5377;43.276;26.930;2024-01-30T04:27:59;15.73;;;10.90;;
10657;SDS011;5377;43.276;26.930;2024-01-30T04:30:26;15.13;;;11.10;;
10657;SDS011;5377;43.276;26.930;2024-01-30T04:32:52;17.23;;;10.60;;
10657;SDS011;5377;43.276;26.930;2024-01-30T04:35:19;18.57;;;11.97;;
10657;SDS011;5377;43.276;26.930;2024-01-30T04:37:51;17.77;;;11.57;;
10657;SDS011;5377;43.276;26.930;2024-01-30T04:40:18;18.37;;;10.53;;
10657;SDS011;5377;43.276;26.930;2024-01-30T04:42:44;17.63;;;10.70;;
10657;SDS011;5377;43.276;26.930;2024-01-30T04:45:11;18.43;;;12.03;;
10657;SDS011;5377;43.276;26.930;2024-01-30T04:47:38;18.13;;;11.10;;
10657;SDS011;5377;43.276;26.930;2024-01-30T04:50:05;19.33;;;11.10;;
10657;SDS011;5377;43.276;26.930;2024-01-30T04:52:32;15.13;;;9.27;;
10657;SDS011;5377;43.276;26.930;2024-01-30T04:55:00;16.47;;;11.50;;
10657;SDS011;5377;43.276;26.930;2024-01-30T04:57:26;16.83;;;10.50;;
10657;SDS011;5377;43.276;26.930;2024-01-30T04:59:53;15.13;;;9.97;;
10657;SDS011;5377;43.276;26.930;2024-01-30T05:02:19;17.10;;;10.93;;
10657;SDS011;5377;43.276;26.930;2024-01-30T05:04:46;17.20;;;10.53;;
10657;SDS011;5377;43.276;26.930;2024-01-30T05:07:13;14.13;;;9.37;;
10657;SDS011;5377;43.276;26.930;2024-01-30T05:09:39;15.60;;;9.77;;
10657;SDS011;5377;43.276;26.930;2024-01-30T05:12:07;17.70;;;11.23;;
10657;SDS011;5377;43.276;26.930;2024-01-30T05:14:34;19.07;;;10.13;;
10657;SDS011;5377;43.276;26.930;2024-01-30T05:17:00;17.13;;;11.13;;
10657;SDS011;5377;43.276;26.930;2024-01-30T05:19:28;15.13;;;9.47;;
10657;SDS011;5377;43.276;26.930;2024-01-30T05:21:54;16.03;;;11.23;;
10657;SDS011;5377;43.276;26.930;2024-01-30T05:24:21;19.43;;;11.87;;
10657;SDS011;5377;43.276;26.930;2024-01-30T05:26:48;18.60;;;11.20;;
10657;SDS011;5377;43.276;26.930;2024-01-30T05:29:17;18.03;;;9.93;;
10657;SDS011;5377;43.276;26.930;2024-01-30T05:31:44;15.73;;;10.33;;
10657;SDS011;5377;43.276;26.930;2024-01-30T05:34:10;16.73;;;9.93;;
10657;SDS011;5377;43.276;26.930;2024-01-30T05:36:37;15.80;;;11.37;;
10657;SDS011;5377;43.276;26.930;2024-01-30T05:39:03;18.23;;;10.33;;
10657;SDS011;5377;43.276;26.930;2024-01-30T05:41:30;11.20;;;8.20;;
10657;SDS011;5377;43.276;26.930;2024-01-30T05:43:56;17.00;;;11.07;;
10657;SDS011;5377;43.276;26.930;2024-01-30T05:46:24;16.37;;;11.83;;
10657;SDS011;5377;43.276;26.930;2024-01-30T05:48:51;20.33;;;13.43;;
10657;SDS011;5377;43.276;26.930;2024-01-30T05:51:17;19.77;;;12.00;;
10657;SDS011;5377;43.276;26.930;2024-01-30T05:53:44;19.87;;;13.13;;
10657;SDS011;5377;43.276;26.930;2024-01-30T05:56:10;19.73;;;12.53;;
10657;SDS011;5377;43.276;26.930;2024-01-30T05:58:37;18.00;;;12.23;;
10657;SDS011;5377;43.276;26.930;2024-01-30T06:01:06;17.03;;;9.80;;
10657;SDS011;5377;43.276;26.930;2024-01-30T06:03:34;17.23;;;11.50;;
10657;SDS011;5377;43.276;26.930;2024-01-30T06:06:00;18.10;;;11.37;;
10657;SDS011;5377;43.276;26.930;2024-01-30T06:08:27;15.50;;;11.03;;
10657;SDS011;5377;43.276;26.930;2024-01-30T06:10:54;18.53;;;12.10;;
10657;SDS011;5377;43.276;26.930;2024-01-30T06:13:20;20.00;;;12.07;;
10657;SDS011;5377;43.276;26.930;2024-01-30T06:15:47;19.00;;;12.97;;
10657;SDS011;5377;43.276;26.930;2024-01-30T06:18:13;22.00;;;13.53;;
10657;SDS011;5377;43.276;26.930;2024-01-30T06:20:41;15.47;;;9.07;;
10657;SDS011;5377;43.276;26.930;2024-01-30T06:23:07;20.43;;;12.63;;
10657;SDS011;5377;43.276;26.930;2024-01-30T06:25:34;14.03;;;10.13;;
10657;SDS011;5377;43.276;26.930;2024-01-30T06:28:00;17.13;;;10.80;;
10657;SDS011;5377;43.276;26.930;2024-01-30T06:30:27;16.37;;;11.00;;
10657;SDS011;5377;43.276;26.930;2024-01-30T06:32:54;19.20;;;12.17;;
10657;SDS011;5377;43.276;26.930;2024-01-30T06:35:20;17.80;;;10.90;;
10657;SDS011;5377;43.276;26.930;2024-01-30T06:37:48;20.67;;;12.60;;
10657;SDS011;5377;43.276;26.930;2024-01-30T06:40:14;19.33;;;12.73;;
10657;SDS011;5377;43.276;26.930;2024-01-30T06:42:41;17.83;;;12.33;;
10657;SDS011;5377;43.276;26.930;2024-01-30T06:45:08;17.80;;;11.47;;
10657;SDS011;5377;43.276;26.930;2024-01-30T06:47:34;18.43;;;11.40;;
10657;SDS011;5377;43.276;26.930;2024-01-30T06:50:01;18.43;;;12.43;;
10657;SDS011;5377;43.276;26.930;2024-01-30T06:52:28;18.67;;;12.53;;
10657;SDS011;5377;43.276;26.930;2024-01-30T06:54:56;19.83;;;11.67;;
10657;SDS011;5377;43.276;26.930;2024-01-30T06:57:23;18.57;;;11.43;;
10657;SDS011;5377;43.276;26.930;2024-01-30T06:59:49;17.90;;;13.00;;
10657;SDS011;5377;43.276;26.930;2024-01-30T07:02:16;18.00;;;11.37;;
10657;SDS011;5377;43.276;26.930;2024-01-30T07:04:43;21.47;;;12.43;;
10657;SDS011;5377;43.276;26.930;2024-01-30T07:07:09;20.00;;;12.87;;
10657;SDS011;5377;43.276;26.930;2024-01-30T07:09:38;23.30;;;12.83;;
10657;SDS011;5377;43.276;26.930;2024-01-30T07:12:06;23.00;;;15.03;;
10657;SDS011;5377;43.276;26.930;2024-01-30T07:14:33;19.43;;;14.50;;
10657;SDS011;5377;43.276;26.930;2024-01-30T07:16:59;23.23;;;15.93;;
10657;SDS011;5377;43.276;26.930;2024-01-30T07:19:26;25.50;;;15.73;;
10657;SDS011;5377;43.276;26.930;2024-01-30T07:21:52;21.40;;;12.67;;
10657;SDS011;5377;43.276;26.930;2024-01-30T07:24:19;22.83;;;14.73;;
10657;SDS011;5377;43.276;26.930;2024-01-30T07:26:46;17.73;;;10.93;;
10657;SDS011;5377;43.276;26.930;2024-01-30T07:29:14;21.10;;;12.97;;
10657;SDS011;5377;43.276;26.930;2024-01-30T07:31:40;21.60;;;13.80;;
10657;SDS011;5377;43.276;26.930;2024-01-30T07:34:07;20.03;;;12.60;;
10657;SDS011;5377;43.276;26.930;2024-01-30T07:36:33;22.53;;;14.80;;
10657;SDS011;5377;43.276;26.930;2024-01-30T07:38:59;22.13;;;14.00;;
10657;SDS011;5377;43.276;26.930;2024-01-30T07:41:26;20.63;;;13.10;;
10657;SDS011;5377;43.276;26.930;2024-01-30T07:43:53;19.90;;;13.13;;
10657;SDS011;5377;43.276;26.930;2024-01-30T07:46:20;22.30;;;13.77;;
10657;SDS011;5377;43.276;26.930;2024-01-30T07:48:47;22.80;;;14.33;;
10657;SDS011;5377;43.276;26.930;2024-01-30T07:51:13;20.07;;;13.07;;
10657;SDS011;5377;43.276;26.930;2024-01-30T07:53:40;17.30;;;12.07;;
10657;SDS011;5377;43.276;26.930;2024-01-30T07:56:07;17.10;;;12.70;;
10657;SDS011;5377;43.276;26.930;2024-01-30T07:58:33;19.60;;;11.77;;
10657;SDS011;5377;43.276;26.930;2024-01-30T08:01:00;15.37;;;11.07;;
10657;SDS011;5377;43.276;26.930;2024-01-30T08:03:28;21.33;;;11.23;;
10657;SDS011;5377;43.276;26.930;2024-01-30T08:05:54;19.27;;;12.60;;
10657;SDS011;5377;43.276;26.930;2024-01-30T08:08:21;18.40;;;12.77;;
10657;SDS011;5377;43.276;26.930;2024-01-30T08:10:47;20.93;;;12.03;;
10657;SDS011;5377;43.276;26.930;2024-01-30T08:13:15;17.20;;;11.67;;
10657;SDS011;5377;43.276;26.930;2024-01-30T08:15:41;18.63;;;11.07;;
10657;SDS011;5377;43.276;26.930;2024-01-30T08:18:08;15.43;;;9.57;;
10657;SDS011;5377;43.276;26.930;2024-01-30T08:20:35;16.33;;;10.80;;
10657;SDS011;5377;43.276;26.930;2024-01-30T08:23:02;16.77;;;10.83;;
10657;SDS011;5377;43.276;26.930;2024-01-30T08:25:28;18.40;;;10.63;;
10657;SDS011;5377;43.276;26.930;2024-01-30T08:27:55;16.43;;;11.37;;
10657;SDS011;5377;43.276;26.930;2024-01-30T08:30:22;18.93;;;12.60;;
10657;SDS011;5377;43.276;26.930;2024-01-30T08:32:48;16.93;;;12.03;;
10657;SDS011;5377;43.276;26.930;2024-01-30T08:35:15;19.30;;;11.90;;
10657;SDS011;5377;43.276;26.930;2024-01-30T08:37:43;18.23;;;12.03;;
10657;SDS011;5377;43.276;26.930;2024-01-30T08:40:10;19.80;;;12.00;;
10657;SDS011;5377;43.276;26.930;2024-01-30T08:42:36;19.17;;;12.93;;
10657;SDS011;5377;43.276;26.930;2024-01-30T08:45:03;13.97;;;10.50;;
10657;SDS011;5377;43.276;26.930;2024-01-30T08:47:30;14.77;;;9.70;;
10657;SDS011;5377;43.276;26.930;2024-01-30T08:49:56;15.57;;;10.03;;
10657;SDS011;5377;43.276;26.930;2024-01-30T08:52:23;19.67;;;11.60;;
10657;SDS011;5377;43.276;26.930;2024-01-30T08:54:51;20.57;;;11.00;;
10657;SDS011;5377;43.276;26.930;2024-01-30T08:57:17;20.97;;;11.87;;
10657;SDS011;5377;43.276;26.930;2024-01-30T08:59:43;16.43;;;9.53;;
10657;SDS011;5377;43.276;26.930;2024-01-30T09:02:11;12.47;;;9.67;;
10657;SDS011;5377;43.276;26.930;2024-01-30T09:04:38;14.03;;;10.27;;
10657;SDS011;5377;43.276;26.930;2024-01-30T09:07:04;15.87;;;10.30;;
10657;SDS011;5377;43.276;26.930;2024-01-30T09:09:33;20.33;;;12.00;;
10657;SDS011;5377;43.276;26.930;2024-01-30T09:12:01;17.33;;;10.30;;
10657;SDS011;5377;43.276;26.930;2024-01-30T09:14:32;16.90;;;10.10;;
10657;SDS011;5377;43.276;26.930;2024-01-30T09:16:58;18.53;;;10.47;;
10657;SDS011;5377;43.276;26.930;2024-01-30T09:19:25;20.77;;;10.20;;
10657;SDS011;5377;43.276;26.930;2024-01-30T09:21:51;16.73;;;11.40;;
10657;SDS011;5377;43.276;26.930;2024-01-30T09:24:18;15.10;;;9.57;;
10657;SDS011;5377;43.276;26.930;2024-01-30T09:26:44;14.57;;;10.17;;
10657;SDS011;5377;43.276;26.930;2024-01-30T09:29:12;15.83;;;9.53;;
10657;SDS011;5377;43.276;26.930;2024-01-30T09:31:39;21.30;;;10.73;;
10657;SDS011;5377;43.276;26.930;2024-01-30T09:34:05;19.23;;;10.27;;
10657;SDS011;5377;43.276;26.930;2024-01-30T09:36:32;16.80;;;11.43;;
10657;SDS011;5377;43.276;26.930;2024-01-30T09:38:58;18.13;;;9.80;;
10657;SDS011;5377;43.276;26.930;2024-01-30T09:41:26;10.60;;;7.67;;
10657;SDS011;5377;43.276;26.930;2024-01-30T09:43:53;13.20;;;8.50;;
10657;SDS011;5377;43.276;26.930;2024-01-30T09:46:22;17.93;;;9.13;;
10657;SDS011;5377;43.276;26.930;2024-01-30T09:48:51;14.70;;;9.53;;
10657;SDS011;5377;43.276;26.930;2024-01-30T09:51:18;18.23;;;10.17;;
10657;SDS011;5377;43.276;26.930;2024-01-30T09:53:45;16.03;;;9.80;;
10657;SDS011;5377;43.276;26.930;2024-01-30T09:56:12;16.40;;;8.17;;
10657;SDS011;5377;43.276;26.930;2024-01-30T09:58:38;14.80;;;8.43;;
10657;SDS011;5377;43.276;26.930;2024-01-30T10:01:05;17.00;;;8.20;;
10657;SDS011;5377;43.276;26.930;2024-01-30T10:03:33;16.67;;;7.97;;
10657;SDS011;5377;43.276;26.930;2024-01-30T10:06:00;15.87;;;7.57;;
10657;SDS011;5377;43.276;26.930;2024-01-30T10:08:27;12.47;;;7.20;;
10657;SDS011;5377;43.276;26.930;2024-01-30T10:10:54;8.53;;;6.53;;
10657;SDS011;5377;43.276;26.930;2024-01-30T10:13:21;9.03;;;5.97;;
10657;SDS011;5377;43.276;26.930;2024-01-30T10:15:47;9.80;;;6.03;;
10657;SDS011;5377;43.276;26.930;2024-01-30T10:18:14;10.23;;;7.00;;
10657;SDS011;5377;43.276;26.930;2024-01-30T10:20:42;13.60;;;6.53;;
10657;SDS011;5377;43.276;26.930;2024-01-30T10:23:08;13.93;;;6.53;;
10657;SDS011;5377;43.276;26.930;2024-01-30T10:25:35;8.23;;;6.10;;
10657;SDS011;5377;43.276;26.930;2024-01-30T10:28:02;9.67;;;5.77;;
10657;SDS011;5377;43.276;26.930;2024-01-30T10:30:28;9.20;;;5.00;;
10657;SDS011;5377;43.276;26.930;2024-01-30T10:32:55;8.27;;;5.00;;
10657;SDS011;5377;43.276;26.930;2024-01-30T10:35:21;4.90;;;3.67;;
10657;SDS011;5377;43.276;26.930;2024-01-30T10:37:49;8.27;;;5.27;;
10657;SDS011;5377;43.276;26.930;2024-01-30T10:40:16;7.80;;;5.30;;
10657;SDS011;5377;43.276;26.930;2024-01-30T10:42:43;9.83;;;5.23;;
10657;SDS011;5377;43.276;26.930;2024-01-30T10:45:10;5.43;;;4.73;;
10657;SDS011;5377;43.276;26.930;2024-01-30T10:47:37;8.03;;;5.10;;
10657;SDS011;5377;43.276;26.930;2024-01-30T10:50:05;8.80;;;5.30;;
10657;SDS011;5377;43.276;26.930;2024-01-30T10:52:33;7.30;;;4.57;;
10657;SDS011;5377;43.276;26.930;2024-01-30T10:55:02;8.30;;;4.10;;
10657;SDS011;5377;43.276;26.930;2024-01-30T10:57:31;12.00;;;5.40;;
10657;SDS011;5377;43.276;26.930;2024-01-30T11:00:00;7.60;;;4.50;;
10657;SDS011;5377;43.276;26.930;2024-01-30T11:02:30;6.37;;;3.90;;
10657;SDS011;5377;43.276;26.930;2024-01-30T11:04:57;5.13;;;3.57;;
10657;SDS011;5377;43.276;26.930;2024-01-30T11:07:24;21.17;;;5.53;;
10657;SDS011;5377;43.276;26.930;2024-01-30T11:09:51;6.63;;;4.47;;
10657;SDS011;5377;43.276;26.930;2024-01-30T11:12:22;7.77;;;4.83;;
10657;SDS011;5377;43.276;26.930;2024-01-30T11:14:50;7.90;;;5.47;;
10657;SDS011;5377;43.276;26.930;2024-01-30T11:17:16;8.73;;;5.33;;
10657;SDS011;5377;43.276;26.930;2024-01-30T11:19:43;6.40;;;4.83;;
10657;SDS011;5377;43.276;26.930;2024-01-30T11:22:10;15.97;;;6.77;;
10657;SDS011;5377;43.276;26.930;2024-01-30T11:24:38;7.00;;;5.17;;
10657;SDS011;5377;43.276;26.930;2024-01-30T11:27:07;11.17;;;6.03;;
10657;SDS011;5377;43.276;26.930;2024-01-30T11:29:35;8.93;;;4.97;;
10657;SDS011;5377;43.276;26.930;2024-01-30T11:32:02;6.20;;;3.73;;
10657;SDS011;5377;43.276;26.930;2024-01-30T11:34:30;6.73;;;4.30;;
10657;SDS011;5377;43.276;26.930;2024-01-30T11:36:59;7.40;;;5.17;;
10657;SDS011;5377;43.276;26.930;2024-01-30T11:39:26;9.37;;;6.33;;
10657;SDS011;5377;43.276;26.930;2024-01-30T11:41:52;16.63;;;9.20;;
10657;SDS011;5377;43.276;26.930;2024-01-30T11:44:19;11.87;;;7.77;;
10657;SDS011;5377;43.276;26.930;2024-01-30T11:46:48;18.63;;;10.67;;
10657;SDS011;5377;43.276;26.930;2024-01-30T11:49:15;11.20;;;6.17;;
10657;SDS011;5377;43.276;26.930;2024-01-30T11:51:42;8.37;;;7.07;;
10657;SDS011;5377;43.276;26.930;2024-01-30T11:54:09;11.03;;;6.20;;
10657;SDS011;5377;43.276;26.930;2024-01-30T11:56:36;7.67;;;5.13;;
10657;SDS011;5377;43.276;26.930;2024-01-30T11:59:03;7.77;;;5.57;;
10657;SDS011;5377;43.276;26.930;2024-01-30T12:01:29;8.50;;;5.43;;
10657;SDS011;5377;43.276;26.930;2024-01-30T12:03:58;8.43;;;5.13;;
10657;SDS011;5377;43.276;26.930;2024-01-30T12:06:24;7.37;;;5.10;;
10657;SDS011;5377;43.276;26.930;2024-01-30T12:08:58;12.03;;;5.67;;
10657;SDS011;5377;43.276;26.930;2024-01-30T12:11:25;11.77;;;5.37;;
10657;SDS011;5377;43.276;26.930;2024-01-30T12:13:51;13.90;;;6.03;;
10657;SDS011;5377;43.276;26.930;2024-01-30T12:16:18;8.73;;;6.00;;
10657;SDS011;5377;43.276;26.930;2024-01-30T12:18:45;6.10;;;4.87;;
10657;SDS011;5377;43.276;26.930;2024-01-30T12:21:15;6.77;;;4.63;;
10657;SDS011;5377;43.276;26.930;2024-01-30T12:23:42;10.07;;;5.83;;
10657;SDS011;5377;43.276;26.930;2024-01-30T12:26:09;9.97;;;6.00;;
10657;SDS011;5377;43.276;26.930;2024-01-30T12:28:36;7.97;;;5.70;;
10657;SDS011;5377;43.276;26.930;2024-01-30T12:31:02;12.27;;;6.60;;
10657;SDS011;5377;43.276;26.930;2024-01-30T12:33:29;6.67;;;5.60;;
10657;SDS011;5377;43.276;26.930;2024-01-30T12:35:56;7.70;;;5.50;;
10657;SDS011;5377;43.276;26.930;2024-01-30T12:38:25;8.77;;;5.50;;
10657;SDS011;5377;43.276;26.930;2024-01-30T12:40:53;6.20;;;5.10;;
10657;SDS011;5377;43.276;26.930;2024-01-30T12:43:20;6.17;;;4.30;;
10657;SDS011;5377;43.276;26.930;2024-01-30T12:45:47;9.53;;;6.00;;
10657;SDS011;5377;43.276;26.930;2024-01-30T12:48:13;7.80;;;5.57;;
10657;SDS011;5377;43.276;26.930;2024-01-30T12:50:41;7.83;;;5.67;;
10657;SDS011;5377;43.276;26.930;2024-01-30T12:53:07;10.53;;;6.10;;
10657;SDS011;5377;43.276;26.930;2024-01-30T12:55:35;8.73;;;5.80;;
10657;SDS011;5377;43.276;26.930;2024-01-30T12:58:02;7.13;;;5.23;;
10657;SDS011;5377;43.276;26.930;2024-01-30T13:00:28;8.50;;;6.33;;
10657;SDS011;5377;43.276;26.930;2024-01-30T13:02:55;15.57;;;6.60;;
10657;SDS011;5377;43.276;26.930;2024-01-30T13:05:21;8.40;;;5.10;;
10657;SDS011;5377;43.276;26.930;2024-01-30T13:07:48;15.50;;;7.97;;
10657;SDS011;5377;43.276;26.930;2024-01-30T13:10:14;43.07;;;18.47;;
10657;SDS011;5377;43.276;26.930;2024-01-30T13:12:42;20.83;;;12.47;;
10657;SDS011;5377;43.276;26.930;2024-01-30T13:15:09;8.77;;;6.77;;
10657;SDS011;5377;43.276;26.930;2024-01-30T13:17:36;14.60;;;8.97;;
10657;SDS011;5377;43.276;26.930;2024-01-30T13:20:03;28.60;;;14.77;;
10657;SDS011;5377;43.276;26.930;2024-01-30T13:22:31;24.27;;;12.83;;
10657;SDS011;5377;43.276;26.930;2024-01-30T13:24:57;25.30;;;9.80;;
10657;SDS011;5377;43.276;26.930;2024-01-30T13:27:24;10.97;;;7.53;;
10657;SDS011;5377;43.276;26.930;2024-01-30T13:29:52;12.23;;;6.27;;
10657;SDS011;5377;43.276;26.930;2024-01-30T13:32:18;8.87;;;5.53;;
10657;SDS011;5377;43.276;26.930;2024-01-30T13:34:45;9.97;;;6.50;;
10657;SDS011;5377;43.276;26.930;2024-01-30T13:37:11;6.83;;;5.07;;
10657;SDS011;5377;43.276;26.930;2024-01-30T13:39:38;8.60;;;5.70;;
10657;SDS011;5377;43.276;26.930;2024-01-30T13:42:05;7.73;;;4.57;;
10657;SDS011;5377;43.276;26.930;2024-01-30T13:44:31;8.27;;;5.60;;
10657;SDS011;5377;43.276;26.930;2024-01-30T13:46:59;8.50;;;6.30;;
10657;SDS011;5377;43.276;26.930;2024-01-30T13:49:26;11.13;;;7.97;;
10657;SDS011;5377;43.276;26.930;2024-01-30T13:51:52;11.27;;;6.60;;
10657;SDS011;5377;43.276;26.930;2024-01-30T13:54:19;11.97;;;6.37;;
10657;SDS011;5377;43.276;26.930;2024-01-30T13:56:45;8.67;;;4.90;;
10657;SDS011;5377;43.276;26.930;2024-01-30T13:59:12;6.60;;;5.17;;
10657;SDS011;5377;43.276;26.930;2024-01-30T14:01:38;8.43;;;5.17;;
10657;SDS011;5377;43.276;26.930;2024-01-30T14:04:06;6.50;;;4.63;;
10657;SDS011;5377;43.276;26.930;2024-01-30T14:06:33;11.10;;;6.53;;
10657;SDS011;5377;43.276;26.930;2024-01-30T14:08:59;6.60;;;4.77;;
10657;SDS011;5377;43.276;26.930;2024-01-30T14:11:26;11.33;;;5.80;;
10657;SDS011;5377;43.276;26.930;2024-01-30T14:13:53;10.23;;;5.93;;
10657;SDS011;5377;43.276;26.930;2024-01-30T14:16:19;13.93;;;7.20;;
10657;SDS011;5377;43.276;26.930;2024-01-30T14:18:46;10.37;;;6.17;;
10657;SDS011;5377;43.276;26.930;2024-01-30T14:21:14;7.07;;;4.03;;
10657;SDS011;5377;43.276;26.930;2024-01-30T14:23:41;10.87;;;5.40;;
10657;SDS011;5377;43.276;26.930;2024-01-30T14:26:07;7.93;;;5.57;;